Current Conditions
Clear
Conditions



Pressure
1014.92 (hPa) - 29.97 (inHG)
Visibility

10.0 (km) - 6.2 (miles)
   Temperature
16  °C
61°F
12  °C
Dewpoint
77  %
 Humidity
   Wind Speed
11  km/h
6  kts
7  mph
3.1  m/s
   Wind Direction
 100°
Due East
   Airport Data
LGTS
Location Thessaloniki Macedonia International 85 km (52.83 mi)
Metar :LGTS 170350Z 10006KT CAVOK 16/12 Q1015 NOSIG
Tue 17th September 06:50 am
   Raw Metar Info
Raw METAR is the most common format in the world for the transmission of observational weather data. It is highly standardized through the International Civil Aviation Organization (ICAO), which allows it to be understood throughout most of the world.
   API Info
Data Provided by
https://www.checkwx.com/weather/LGTS
   © Info
CSS/SVG/PHP scripts were developed by weather34.com for use in the weather34 template © 2015-2019

Guide Info provided by Metar-Wikipedia